Taiyuan Wusu Airport
ZBYN : now visible

Airfield :











YOU CAN JOIN US ON...

 
LOGIN :

Register | Disclaimer

   EN    FR    IT 

 









Legend :    VFR   Marginal VFR   IFR   Intensive IFR   Very Intensive IFR
Visi :
Ceiling :
>= 8 km
>= 3000ft
5 to 8 km
1000 to 3000 ft
1500m to 5 km
500 to 1000 ft
800 to 1500m
200 to 500 ft
< 800m
< 200 ft
Symbols :   Thunderstorms  Fog  Heavy snow  Heavy precipitations  Wind > 20 kt






- Airport Elevation : 2575 ft
- IATA code : TYN


ZBYN - Taiyuan Wusu

CURRENT METAR :
  • 140700Z 16003MPS 130V210 9000 NSC 03/M08 Q1025 NOSIG

EXPIRED METARs :
  • 140630Z 21002MPS 180V260 CAVOK 03/M08 Q1026 NOSIG
  • 140600Z 16003MPS 120V200 CAVOK 03/M09 Q1026 NOSIG
  • 140530Z 21003MPS 160V250 CAVOK 03/M10 Q1026 NOSIG
  • 140500Z 17004MPS 130V200 CAVOK 04/M10 Q1027 NOSIG
  • 140430Z 12004MPS CAVOK 04/M12 Q1027 NOSIG

TAF TAF ZBYN
Valid from the 14 at 06:00 until the 15 at 06:00 UTC


140303Z 1406/1506 09004MPS 3000 BR NSC TX05/1407Z TNM02/21Z
BECMG 1421/1422 2000 -SN BR



MET'MAP, your aeronautical weather chart ! - Copyright ORBIFLY December 2007 - Disclaimer

ORBIFLY MET'MAP TEAM :

Programming & Development : Alexandra Zaïnal
Concept & original design : Baudouin d'Aumeries
Assistance for programming : Marc-Olivier Méhu
Technical & hardware support : Manuel Goepfert

Contact : metmap@orbifly.com




SOURCES & CREDITS :

   NOAA       Earth
Advisory